Latest Coastal Weather Observations for Merimbula

IDN60701

Issued at 5:22 am EDT Tuesday 27 January 2015 (issued every 10 minutes, with the page automatically refreshed every 10 minutes)

About coastal observations | Map of coastal stations | Coastal observations for NSW | Marine services | Other Formats
Station Details ID: 069147 Name: MERIMBULA AIRPORT AWS Lat: -36.91 Lon: 149.90 Height: 1.5 m
Data from the previous 72 hours. | See also: Recent months at Merimbula
Date/Time
EDT
Temp

°C
Wind Pressure Rain
since 9am
mm
Weather Cloud Vis
km
Sea
Height
m
Swell
Dir
 
Speed
knots
Gust
knots
hPa Trend Height
m
Period
s
Dir
27/05:00am 15.5 WNW 4 5 1015.5 - 0.0 - Cloudy 10 - - - -
27/04:30am 15.6 NW 6 7 1015.6 - 0.0 - Cloudy 10 - - - -
27/04:00am 15.6 NW 6 8 1015.8 - 0.0 - Cloudy 10 - - - -
27/03:30am 15.7 WNW 5 8 1016.1 - 0.0 - Cloudy 10 - - - -
27/03:00am 15.6 W 4 6 1016.3 - 0.0 - Cloudy 10 - - - -
27/02:30am 15.6 WNW 6 7 1016.4 - 0.0 - Cloudy 10 - - - -
27/02:00am 15.8 NW 6 8 1016.6 - 0.0 - Partly cloudy 10 - - - -
27/01:30am 15.6 WNW 6 7 1017.0 - 0.0 - Partly cloudy 10 - - - -
27/01:00am 15.6 W 4 5 1017.3 - 0.0 - Partly cloudy 10 - - - -
27/12:30am 15.7 CALM 0 0 1017.6 - 0.0 - Cloudy 10 - - - -
 
Date/Time
EDT
Temp

°C
Wind Pressure Rain
since 9am
mm
Weather Cloud Vis
km
Sea
Height
m
Swell
Dir
 
Speed
knots
Gust
knots
hPa Trend Height
m
Period
s
Dir
26/11:30pm 15.9 W 4 6 1017.9 - 0.0 - Cloudy 10 - - - -
26/11:00pm 15.9 NW 2 6 1018.1 - 0.0 - Cloudy 10 - - - -
26/10:30pm 15.9 SW 4 6 1018.1 - 0.0 - Cloudy 10 - - - -
26/10:00pm 16.0 SW 6 8 1018.1 - 0.0 - Partly cloudy 10 - - - -
26/09:30pm 16.2 SW 5 8 1018.0 - 0.0 - Cloudy 10 - - - -
26/09:00pm 16.2 SW 5 7 1017.7 - 0.0 - Cloudy 10 - - - -
26/08:30pm 16.5 SW 5 7 1017.5 - 0.0 - Cloudy 10 - - - -
26/08:00pm 16.8 SSW 5 7 1017.1 - 0.0 - Cloudy 10 - - - -
26/07:30pm 17.0 S 6 9 1016.9 - 0.0 - Cloudy 10 - - - -
26/07:00pm 17.2 S 6 8 1016.4 - 0.0 - Partly cloudy 10 - - - -
26/06:30pm 17.4 S 6 8 1016.1 - 0.0 - Partly cloudy 10 - - - -
26/06:00pm 17.6 S 6 8 1015.9 - 0.0 - Partly cloudy 10 - - - -
26/05:30pm 17.8 SSE 5 9 1015.7 - 0.0 - Partly cloudy 10 - - - -
26/05:00pm 18.2 SSE 8 11 1015.7 - 0.0 - Partly cloudy 10 - - - -
26/04:30pm 18.3 SE 8 11 1015.8 - 0.0 - Partly cloudy 10 - - - -
26/04:00pm 18.2 SE 9 13 1015.8 - 0.0 - Cloudy 10 - - - -
26/03:30pm 18.4 SE 8 11 1015.7 - 0.0 - Partly cloudy 10 - - - -
26/03:00pm 18.5 SE 7 12 1015.7 - 0.0 - Partly cloudy 10 - - - -
26/02:30pm 19.5 ESE 7 11 1015.6 - 0.0 - Partly cloudy 10 - - - -
26/02:00pm 20.1 ESE 8 11 1015.7 - 0.0 - Partly cloudy 10 - - - -
26/01:30pm 21.1 ESE 8 11 1015.7 - 0.0 - Partly cloudy 10 - - - -
26/01:00pm 20.3 ESE 7 10 1016.1 - 0.0 - Partly cloudy 10 - - - -
26/12:30pm 19.5 E 5 8 1016.3 - 0.0 - Partly cloudy 10 - - - -
26/12:00pm 20.0 SSE 5 7 1016.2 - 0.0 - Mostly cloudy 10 - - - -
26/11:30am 18.9 SSW 5 9 1016.2 - 0.0 - Partly cloudy 10 - - - -
26/11:00am 19.0 S 5 8 1016.1 - 0.0 - Partly cloudy 10 - - - -
26/10:30am 18.5 SW 6 10 1016.0 - 0.0 - Partly cloudy 10 - - - -
26/10:00am 17.7 SW 6 8 1016.1 - 0.0 - Partly cloudy 10 - - - -
26/09:30am 17.3 SSW 5 9 1016.0 - 0.0 - Partly cloudy 10 - - - -
26/09:00am 17.1 WSW 1 4 1015.9 - 0.2 - Cloudy 10 - - - -
26/08:30am 16.6 W 4 6 1015.6 - 0.2 - Partly cloudy 10 - - - -
26/08:00am 16.4 W 4 5 1015.3 - 0.2 - Partly cloudy 10 - - - -
26/07:30am 15.8 CALM 0 0 1014.9 - 0.2 - Partly cloudy 10 - - - -
26/07:00am 14.8 CALM 0 0 1014.8 - 0.2 - Partly cloudy 10 - - - -
26/06:30am 14.7 CALM 0 0 1014.5 - 0.2 - Partly cloudy 10 - - - -
26/06:00am 14.9 CALM 0 0 1014.0 - 0.2 - Cloudy 10 - - - -
26/05:30am 15.3 CALM 0 0 1013.5 - 0.2 - Cloudy 10 - - - -
26/05:00am 15.0 CALM 0 0 1013.0 - 0.2 - Cloudy 10 - - - -
26/04:30am 15.1 CALM 0 0 1012.8 - 0.2 - Cloudy 10 - - - -
26/04:00am 15.8 CALM 0 0 1012.6 - 0.2 - Cloudy 10 - - - -
26/03:30am 16.0 CALM 0 0 1012.6 - 0.2 - Cloudy 10 - - - -
26/03:00am 16.1 SSW 1 4 1012.6 - 0.2 - Cloudy 10 - - - -
26/02:30am 16.2 CALM 0 0 1012.3 - 0.2 - Cloudy 10 - - - -
26/02:00am 16.4 SW 5 7 1012.2 - 0.2 - Cloudy 10 - - - -
26/01:30am 16.5 SW 5 7 1012.3 - 0.2 - Cloudy 10 - - - -
26/01:00am 16.6 SW 4 7 1012.2 - 0.2 - Cloudy 10 - - - -
26/12:30am 16.8 SW 6 11 1012.2 - 0.2 - Cloudy 10 - - - -
26/12:00am 16.9 SW 7 11 1012.1 - 0.2 - Cloudy 10 - - - -
 
Date/Time
EDT
Temp

°C
Wind Pressure Rain
since 9am
mm
Weather Cloud Vis
km
Sea
Height
m
Swell
Dir
 
Speed
knots
Gust
knots
hPa Trend Height
m
Period
s
Dir
25/11:30pm 17.1 SSW 9 15 1012.1 - 0.2 - Cloudy 10 - - - -
25/11:00pm 17.1 SW 8 13 1011.7 - 0.2 - Cloudy 10 - - - -
25/10:30pm 17.3 SSW 7 12 1011.5 - 0.2 - Cloudy 10 - - - -
25/10:00pm 17.4 SSW 6 9 1011.2 - 0.2 - Cloudy 10 - - - -
25/09:30pm 17.5 SSW 9 13 1010.7 - 0.2 - Cloudy 10 - - - -
25/09:00pm 17.7 SSW 9 13 1010.1 - 0.2 - Cloudy 10 - - - -
25/08:30pm 17.9 SSW 8 11 1009.4 - 0.2 - Cloudy 10 - - - -
25/08:00pm 18.1 SSW 9 14 1009.1 - 0.2 - Cloudy 10 - - - -
25/07:30pm 18.3 SSW 10 14 1008.4 - 0.2 - Partly cloudy 10 - - - -
25/07:00pm 18.4 SSW 8 11 1007.9 - 0.2 - Cloudy 10 - - - -
25/06:30pm 18.7 SSW 13 19 1007.3 - 0.2 - Partly cloudy 10 - - - -
25/06:00pm 19.3 SSW 8 17 1006.6 - 0.2 - Mostly cloudy 10 - - - -
25/05:30pm 19.3 SSW 14 19 1006.2 - 0.2 - Partly cloudy 10 - - - -
25/05:00pm 20.2 SSW 12 19 1005.4 - 0.2 - Partly cloudy 10 - - - -
25/04:30pm 20.7 SSW 13 20 1004.7 - 0.2 - Partly cloudy 10 - - - -
25/04:00pm 20.6 SSW 15 23 1004.5 - 0.2 - Partly cloudy 10 - - - -
25/03:30pm 21.6 SW 15 21 1004.0 - 0.2 - Partly cloudy 10 - - - -
25/03:11pm 21.9 SSW 15 28 1003.6 - 0.2 - - 10 - - - -
25/03:00pm 22.9 S 12 19 1003.5 - 0.2 - - 10 - - - -
25/02:30pm 23.4 S 12 20 1003.0 - 0.2 - Partly cloudy 10 - - - -
25/02:00pm 24.2 S 13 21 1002.3 - 0.2 - Partly cloudy 10 - - - -
25/01:30pm 24.9 SE 11 16 1001.7 - 0.2 - Partly cloudy 10 - - - -
25/01:00pm 25.4 SE 9 13 1001.6 - 0.2 - Partly cloudy 10 - - - -
25/12:30pm 26.3 SE 9 15 1001.3 - 0.2 - Partly cloudy 10 - - - -
25/12:00pm 25.7 SE 10 13 1001.4 - 0.2 - - 10 - - - -
25/11:30am 24.4 SE 10 14 1001.4 - 0.2 - - 10 - - - -
25/11:00am 23.8 SE 10 16 1001.7 - 0.2 - - 10 - - - -
25/10:30am 23.7 SE 10 16 1001.5 - 0.2 - - 10 - - - -
25/10:00am 22.6 SE 11 15 1001.6 - 0.0 - - 10 - - - -
25/09:30am 22.5 ESE 8 12 1001.4 - 0.0 - - 10 - - - -
25/09:00am 22.4 CALM 0 0 1001.2 - 5.4 - - 10 - - - -
25/08:30am 20.8 CALM 0 0 1001.0 - 5.4 - - 10 - - - -
25/08:00am 20.2 S 3 6 1000.6 - 5.4 - - 10 - - - -
25/07:30am 19.5 CALM 0 0 1000.2 - 5.4 - - 10 - - - -
25/07:15am 18.9 CALM 0 0 1000.0 - 5.4 - - 10 - - - -
25/07:00am 18.6 S 1 5 1000.0 - 5.4 - - 4 - - - -
25/06:36am 18.0 S 4 6 999.7 - 5.4 - - 4 - - - -
25/06:30am 18.1 S 3 5 999.7 - 5.4 - - 10 - - - -
25/06:00am 18.6 CALM 0 0 999.5 - 5.4 - - 10 - - - -
25/05:30am 18.8 NW 5 6 999.4 - 5.4 - - 10 - - - -
25/05:14am 18.4 CALM 0 0 999.4 - 5.4 - - 5 - - - -
25/05:00am 18.8 NNW 3 4 999.2 - 5.4 - - 10 - - - -
25/04:30am 19.2 N 2 6 999.4 - 5.4 - - 10 - - - -
25/04:00am 19.4 CALM 0 0 999.7 - 5.4 - - 10 - - - -
25/03:30am 19.4 CALM 0 0 1000.3 - 5.4 - - 10 - - - -
25/03:23am 19.5 CALM 0 0 1000.3 - 5.4 - - 10 - - - -
25/03:00am 19.6 CALM 0 0 1000.8 - 5.4 - Mostly clear 4 - - - -
25/02:30am 19.5 CALM 0 0 1001.4 - 5.4 - - 3 - - - -
25/02:00am 19.3 CALM 0 0 1001.7 - 5.4 - - 2 - - - -
25/01:48am 19.8 CALM 0 0 1001.7 - 5.4 - - 5 - - - -
25/01:30am 19.8 CALM 0 0 1001.9 - 5.4 - - 8 - - - -
25/01:00am 20.4 CALM 0 0 1002.4 - 5.4 - - 9 - - - -
25/12:30am 20.6 CALM 0 0 1002.7 - 5.4 - Partly cloudy 10 - - - -
25/12:09am 20.9 CALM 0 0 1003.0 - 5.4 - Partly cloudy 10 - - - -
25/12:00am 20.9 CALM 0 0 1003.2 - 5.4 - Partly cloudy 10 - - - -
 
Date/Time
EDT
Temp

°C
Wind Pressure Rain
since 9am
mm
Weather Cloud Vis
km
Sea
Height
m
Swell
Dir
 
Speed
knots
Gust
knots
hPa Trend Height
m
Period
s
Dir
24/11:30pm 21.0 CALM 0 0 1003.5 - 5.4 - Partly cloudy 7 - - - -
24/11:00pm 20.8 NNE 5 8 1003.6 - 5.4 - Partly cloudy 7 - - - -
24/10:30pm 20.6 NNE 6 9 1004.0 - 5.4 - Partly cloudy 9 - - - -
24/10:05pm 20.5 N 1 3 1004.0 - 5.4 - Partly cloudy 7 - - - -
24/10:00pm 20.5 N 1 4 1003.9 - 5.4 - Partly cloudy 7 - - - -
24/09:58pm 20.4 N 2 4 1003.8 - 5.4 - Partly cloudy 6 - - - -
24/09:38pm 20.4 E 3 7 1003.7 - 5.4 - - 5 - - - -
24/09:30pm 20.3 E 7 9 1003.8 - 5.4 - - 7 - - - -
24/09:00pm 20.6 CALM 0 0 1004.3 - 5.4 Recent precip. - 10 - - - -
24/08:30pm 20.6 S 1 5 1004.3 - 5.2 - - 10 - - - -
24/08:00pm 20.7 SE 4 6 1004.9 - 4.8 - Partly cloudy 10 - - - -
24/07:46pm 20.6 S 6 9 1005.1 - 4.4 - Partly cloudy 8 - - - -
24/07:30pm 21.0 SSW 8 12 1004.9 - 3.6 - Partly cloudy 5 - - - -
24/07:00pm 22.6 CALM 0 0 1004.1 - 1.8 - - 3 - - - -
24/06:30pm 22.6 WSW 3 7 1004.2 - 0.8 - - 5 - - - -
24/06:18pm 22.4 CALM 0 4 1003.7 - 0.8 - - 5 - - - -
24/06:12pm 22.4 NNE 3 8 1003.3 - 0.6 - - 6 - - - -
24/06:00pm 22.3 NE 6 9 1002.2 - 0.6 Recent precip. Mostly clear 5 - - - -
24/05:34pm 22.6 E 1 7 1002.7 - 0.2 - Partly cloudy 5 - - - -
24/05:30pm 22.8 NE 3 7 1002.8 - 0.2 - Partly cloudy 8 - - - -
24/05:00pm 23.0 NNE 1 4 1003.3 - 0.2 - - 9 - - - -
24/04:30pm 22.9 NE 6 9 1003.2 - 0.2 - - 9 - - - -
24/04:00pm 23.1 NNE 6 9 1002.8 - 0.2 - - 10 - - - -
24/03:30pm 22.8 NE 7 14 1003.4 - 0.2 - - 10 - - - -
24/03:00pm 22.6 NE 9 13 1003.4 - 0.2 - Mostly clear 10 - - - -
24/02:30pm 22.9 NE 9 14 1004.0 - 0.2 - Partly cloudy 10 - - - -
24/02:00pm 23.6 NE 11 15 1004.3 - 0.2 - - 10 - - - -
24/01:30pm 24.3 NE 9 15 1004.7 - 0.2 - - 10 - - - -
24/01:00pm 25.0 ENE 12 17 1005.2 - 0.2 - - 10 - - - -
24/12:30pm 24.1 NE 12 18 1005.4 - 0.2 - - 10 - - - -
24/12:00pm 24.4 NE 7 11 1005.7 - 0.2 - - 10 - - - -
24/11:30am 23.9 NE 8 10 1005.8 - 0.2 - - 10 - - - -
24/11:00am 22.2 NE 7 13 1006.0 - 0.2 - - 10 - - - -
24/10:30am 22.4 E 7 11 1006.0 - 0.2 - - 10 - - - -
24/10:00am 23.5 ESE 4 6 1006.2 - 0.0 - - 10 - - - -
24/09:30am 22.6 CALM 0 0 1006.2 - 0.0 - - 10 - - - -
24/09:22am 21.7 CALM 0 0 1006.2 - 0.0 - Partly cloudy 10 - - - -
24/09:00am 20.5 CALM 0 0 1006.5 - 0.0 - Mostly cloudy 10 - - - -
24/08:30am 20.2 CALM 0 0 1006.6 - 0.0 - Cloudy 10 - - - -
24/08:00am 19.9 CALM 0 0 1006.8 - 0.0 - Cloudy 10 - - - -
24/07:30am 19.5 CALM 0 0 1006.9 - 0.0 - Cloudy 10 - - - -
24/07:00am 19.1 CALM 0 0 1007.0 - 0.0 - Cloudy 10 - - - -
24/06:30am 19.0 CALM 0 0 1007.0 - 0.0 - Cloudy 10 - - - -
24/06:00am 19.0 SE 3 5 1007.0 - 0.0 - Cloudy 10 - - - -
24/05:49am 19.1 SE 4 7 1007.0 - 0.0 - Partly cloudy 10 - - - -
24/05:30am 19.2 ESE 6 10 1006.8 - 0.0 - Partly cloudy 10 - - - -

Other Formats:

Comma delimited format used in spreadsheet applications
http://www.bom.gov.au/fwo/IDN60701/IDN60701.95929.axf

JavaScript Object Notation format (JSON) in row-major order
http://www.bom.gov.au/fwo/IDN60701/IDN60701.95929.json